Time;durP1;ratioP1;P1;durP2;ratioP2;P2;SDS_P1;SDS_P2;PMS_P1;PMS_P2;Temp;Humidity;BMP_temperature;BMP_pressure;BME280_temperature;BME280_humidity;BME280_pressure;Samples;Min_cycle;Max_cycle;Signal;HPM_P1;HPM_P2
2022/11/28 00:00:58;;;;;;;8.57;7.77;;;;;9.80;98755.00;;;;16582490;28;20250;-47
2022/11/28 00:09:01;;;;;;;12.37;9.63;;;;;8.40;98778.00;;;;16583811;28;20203;-47
2022/11/28 00:17:05;;;;;;;10.47;9.47;;;;;9.20;98760.00;;;;16583121;28;20262;-47
2022/11/28 00:25:08;;;;;;;14.27;12.03;;;;;9.40;98751.00;;;;16582716;28;20260;-47
2022/11/28 00:33:11;;;;;;;12.33;10.07;;;;;7.90;98765.00;;;;16595639;28;20238;-47
2022/11/28 00:41:16;;;;;;;13.07;10.40;;;;;7.80;98769.00;;;;16581783;28;20716;-46
2022/11/28 00:49:20;;;;;;;10.60;9.50;;;;;8.80;98758.00;;;;16579897;28;20271;-47
2022/11/28 00:57:22;;;;;;;11.00;9.90;;;;;8.90;98758.00;;;;16587952;28;20370;-47
2022/11/28 01:05:26;;;;;;;11.77;10.63;;;;;9.30;98756.00;;;;16590799;28;20718;-47
2022/11/28 01:13:29;;;;;;;11.50;9.30;;;;;9.30;98742.00;;;;16591529;28;20234;-47
2022/11/28 01:21:33;;;;;;;10.20;9.03;;;;;9.50;98729.00;;;;16595828;28;20865;-47
2022/11/28 01:29:35;;;;;;;10.00;9.00;;;;;9.30;98721.00;;;;16590855;28;20276;-47
2022/11/28 01:37:39;;;;;;;11.23;9.40;;;;;8.80;98724.00;;;;16590918;28;20321;-48
2022/11/28 01:45:42;;;;;;;9.57;8.67;;;;;9.00;98727.00;;;;16591572;28;20257;-47
2022/11/28 01:53:47;;;;;;;8.90;8.10;;;;;8.20;98731.00;;;;16590875;28;20223;-47
2022/11/28 02:01:49;;;;;;;12.17;9.50;;;;;8.30;98731.00;;;;16589067;28;20350;-47
2022/11/28 02:09:53;;;;;;;9.33;8.53;;;;;8.90;98709.00;;;;16586574;28;20199;-49
2022/11/28 02:18:06;;;;;;;10.20;8.53;;;;;9.20;98703.00;;;;16588905;28;20251;-47
2022/11/28 02:26:32;;;;;;;10.83;8.90;;;;;9.30;98691.00;;;;16599846;28;20309;-48
2022/11/28 02:34:43;;;;;;;8.73;7.93;;;;;9.00;98663.00;;;;16580172;28;20230;-48
2022/11/28 02:42:54;;;;;;;9.20;8.30;;;;;8.90;98654.00;;;;16578297;28;20839;-48
2022/11/28 02:51:02;;;;;;;8.17;7.47;;;;;8.70;98636.00;;;;16587003;28;20216;-48
2022/11/28 02:59:04;;;;;;;8.77;7.97;;;;;8.90;98647.00;;;;16584258;28;20221;-47
2022/11/28 03:07:16;;;;;;;10.80;8.97;;;;;9.30;98619.00;;;;16585791;28;20972;-48
2022/11/28 03:15:21;;;;;;;9.13;8.33;;;;;8.90;98629.00;;;;16582259;28;20237;-48
2022/11/28 03:23:29;;;;;;;9.87;8.03;;;;;8.90;98620.00;;;;16586161;28;20841;-48
2022/11/28 03:31:34;;;;;;;9.17;8.37;;;;;9.00;98628.00;;;;16585357;28;20365;-46
2022/11/28 03:39:41;;;;;;;8.17;7.37;;;;;9.00;98610.00;;;;16583119;28;20268;-47
2022/11/28 03:47:46;;;;;;;9.73;8.83;;;;;8.30;98607.00;;;;16582954;28;20284;-48
2022/11/28 03:55:55;;;;;;;9.57;8.67;;;;;8.80;98604.00;;;;16583699;28;20226;-48
2022/11/28 04:04:09;;;;;;;8.33;7.53;;;;;8.90;98604.00;;;;16579143;28;20747;-47
2022/11/28 04:12:19;;;;;;;10.23;9.10;;;;;8.90;98583.00;;;;16582615;28;20237;-48
2022/11/28 04:20:29;;;;;;;10.67;9.60;;;;;9.20;98581.00;;;;16585046;28;20233;-46
2022/11/28 04:28:35;;;;;;;9.50;8.50;;;;;9.20;98611.00;;;;16584234;28;20633;-48
2022/11/28 04:36:39;;;;;;;9.60;8.70;;;;;9.30;98593.00;;;;16604939;28;20281;-48
2022/11/28 04:44:47;;;;;;;10.40;8.70;;;;;9.00;98598.00;;;;16595916;28;20224;-48
2022/11/28 04:52:53;;;;;;;9.90;9.00;;;;;8.60;98594.00;;;;16607805;28;20292;-48
2022/11/28 05:00:58;;;;;;;11.67;9.57;;;;;8.70;98591.00;;;;16598263;28;20303;-48
2022/11/28 05:09:01;;;;;;;10.87;9.83;;;;;8.60;98579.00;;;;16593580;28;20203;-47
2022/11/28 05:17:04;;;;;;;10.30;8.87;;;;;8.50;98582.00;;;;16592679;28;20757;-47
2022/11/28 05:25:08;;;;;;;11.90;9.00;;;;;8.60;98597.00;;;;16593250;28;20785;-48
2022/11/28 05:33:11;;;;;;;9.37;8.40;;;;;8.60;98603.00;;;;16594998;28;20260;-48
2022/11/28 05:41:20;;;;;;;9.80;8.80;;;;;8.30;98609.00;;;;16547287;28;20308;-47
2022/11/28 05:49:25;;;;;;;11.87;10.70;;;;;8.40;98607.00;;;;16568560;28;20257;-47
2022/11/28 05:57:28;;;;;;;9.70;8.70;;;;;8.40;98599.00;;;;16537952;28;20223;-47
2022/11/28 06:05:33;;;;;;;11.33;9.63;;;;;8.20;98600.00;;;;16578542;28;20237;-47
2022/11/28 06:13:36;;;;;;;9.77;8.73;;;;;8.60;98602.00;;;;16574857;28;20225;-47
2022/11/28 06:21:40;;;;;;;9.87;8.97;;;;;8.60;98604.00;;;;16562956;28;20227;-48
2022/11/28 06:29:42;;;;;;;10.23;8.40;;;;;8.80;98593.00;;;;16545440;28;20875;-48
2022/11/28 06:37:46;;;;;;;11.00;9.50;;;;;8.60;98612.00;;;;16588677;28;20230;-47
2022/11/28 06:45:49;;;;;;;13.20;11.80;;;;;8.60;98611.00;;;;16576609;28;20238;-47
2022/11/28 06:53:53;;;;;;;10.37;9.40;;;;;8.50;98601.00;;;;16596443;28;20353;-47
2022/11/28 07:01:56;;;;;;;12.80;9.97;;;;;8.60;98607.00;;;;16590941;28;20250;-47
2022/11/28 07:10:00;;;;;;;9.70;8.70;;;;;8.70;98608.00;;;;16589031;28;20231;-47
2022/11/28 07:18:02;;;;;;;11.70;10.43;;;;;8.40;98610.00;;;;16586508;28;20262;-47
2022/11/28 07:26:07;;;;;;;12.93;9.27;;;;;8.30;98608.00;;;;16576206;28;20278;-47
2022/11/28 07:34:10;;;;;;;10.20;9.20;;;;;8.50;98618.00;;;;16584403;28;20296;-46
2022/11/28 07:42:14;;;;;;;11.67;10.43;;;;;8.60;98626.00;;;;16585215;28;20297;-48
2022/11/28 07:50:17;;;;;;;11.60;10.40;;;;;8.70;98620.00;;;;16586067;28;20293;-46
2022/11/28 07:58:21;;;;;;;15.70;11.67;;;;;8.60;98622.00;;;;16566447;28;20219;-46
2022/11/28 08:06:25;;;;;;;11.17;9.70;;;;;8.80;98616.00;;;;16538354;28;20223;-47
2022/11/28 08:14:29;;;;;;;13.90;12.50;;;;;8.30;98626.00;;;;16568275;28;20281;-48
2022/11/28 08:22:31;;;;;;;12.13;10.93;;;;;8.60;98628.00;;;;16561673;28;20294;-47
2022/11/28 08:30:35;;;;;;;13.93;12.10;;;;;8.70;98622.00;;;;16562897;28;20234;-47
2022/11/28 08:38:39;;;;;;;12.47;11.03;;;;;8.90;98617.00;;;;16588671;28;20248;-48
2022/11/28 08:46:42;;;;;;;12.47;10.93;;;;;8.90;98614.00;;;;16569423;28;20340;-47
2022/11/28 08:54:45;;;;;;;11.23;10.03;;;;;8.90;98614.00;;;;16580461;28;20266;-48
2022/11/28 09:02:49;;;;;;;14.27;11.27;;;;;8.90;98616.00;;;;16552075;28;20361;-47
2022/11/28 09:10:51;;;;;;;13.67;10.40;;;;;8.90;98620.00;;;;16571821;28;20259;-47
2022/11/28 09:18:58;;;;;;;13.60;10.67;;;;;9.20;98611.00;;;;16588727;28;20235;-47
2022/11/28 09:27:00;;;;;;;12.67;10.53;;;;;9.60;98601.00;;;;16557969;28;20228;-48
2022/11/28 09:35:05;;;;;;;11.97;10.80;;;;;9.50;98634.00;;;;16562831;28;20254;-48
2022/11/28 09:43:14;;;;;;;13.50;11.50;;;;;9.60;98616.00;;;;16575195;28;20306;-48
2022/11/28 09:51:23;;;;;;;10.17;9.10;;;;;9.70;98620.00;;;;16570089;28;20233;-46
2022/11/28 09:59:27;;;;;;;13.20;10.03;;;;;10.00;98611.00;;;;16585080;28;20703;-48
2022/11/28 10:07:37;;;;;;;10.47;9.47;;;;;10.00;98606.00;;;;16607277;28;20261;-47
2022/11/28 10:15:44;;;;;;;12.47;10.10;;;;;9.80;98619.00;;;;16587806;28;20214;-49
2022/11/28 10:23:48;;;;;;;15.87;10.10;;;;;10.00;98613.00;;;;16587038;28;20246;-47
2022/11/28 10:31:54;;;;;;;14.93;9.90;;;;;10.20;98610.00;;;;16582743;28;20254;-48
2022/11/28 10:40:05;;;;;;;13.77;12.30;;;;;10.20;98611.00;;;;16584223;28;20241;-48
2022/11/28 10:48:12;;;;;;;13.27;11.83;;;;;10.50;98617.00;;;;16584991;28;20306;-47
2022/11/28 10:56:25;;;;;;;12.43;10.63;;;;;10.30;98596.00;;;;16584812;28;20755;-48
2022/11/28 11:04:28;;;;;;;14.67;11.10;;;;;10.30;98608.00;;;;16585318;28;20613;-48
2022/11/28 11:12:33;;;;;;;12.40;11.10;;;;;10.60;98609.00;;;;16585090;28;20747;-47
2022/11/28 11:20:38;;;;;;;12.73;11.37;;;;;10.60;98615.00;;;;16586437;28;20264;-48
2022/11/28 11:28:44;;;;;;;13.30;12.00;;;;;11.10;98593.00;;;;16584550;28;20262;-48
2022/11/28 11:36:47;;;;;;;13.10;11.70;;;;;10.80;98583.00;;;;16594402;28;20216;-48
2022/11/28 11:44:51;;;;;;;12.80;11.50;;;;;11.50;98567.00;;;;16582258;28;20272;-48
2022/11/28 11:53:05;;;;;;;13.13;11.30;;;;;11.20;98566.00;;;;16592246;28;20367;-46
2022/11/28 12:01:09;;;;;;;13.53;12.13;;;;;11.00;98575.00;;;;16579220;28;20361;-48
2022/11/28 12:09:23;;;;;;;12.87;11.57;;;;;11.10;98576.00;;;;16584433;28;20674;-47
2022/11/28 12:17:33;;;;;;;16.03;12.13;;;;;11.30;98563.00;;;;16583428;28;20277;-47
2022/11/28 12:25:42;;;;;;;15.00;11.97;;;;;11.50;98561.00;;;;16577723;28;20261;-48
2022/11/28 12:33:54;;;;;;;24.13;20.70;;;;;11.60;98542.00;;;;16526789;28;20315;-48
2022/11/28 12:42:20;;;;;;;15.27;13.30;;;;;11.60;98534.00;;;;16528057;28;20223;-48
2022/11/28 12:50:32;;;;;;;13.00;11.80;;;;;11.30;98522.00;;;;16530532;28;20683;-47
2022/11/28 12:58:39;;;;;;;11.97;10.70;;;;;11.10;98542.00;;;;16548538;28;20234;-47
2022/11/28 13:06:46;;;;;;;13.27;11.93;;;;;11.40;98536.00;;;;16541115;28;20246;-48
2022/11/28 13:14:54;;;;;;;17.03;15.20;;;;;11.10;98527.00;;;;16555625;28;20219;-47
2022/11/28 13:23:06;;;;;;;18.07;13.30;;;;;11.00;98521.00;;;;16552162;28;20306;-48
2022/11/28 13:31:14;;;;;;;14.20;12.80;;;;;11.70;98510.00;;;;16575142;28;20698;-48
2022/11/28 13:39:23;;;;;;;15.53;13.33;;;;;11.90;98496.00;;;;16599958;28;20335;-48
2022/11/28 13:47:30;;;;;;;15.67;14.07;;;;;11.80;98496.00;;;;16608036;28;20216;-48
2022/11/28 13:55:45;;;;;;;14.87;13.37;;;;;11.80;98499.00;;;;16591515;28;20238;-47
2022/11/28 14:03:50;;;;;;;13.17;11.60;;;;;11.50;98500.00;;;;16589574;28;20257;-48
2022/11/28 14:12:04;;;;;;;14.77;11.93;;;;;11.70;98501.00;;;;16590798;28;20234;-48
2022/11/28 14:20:16;;;;;;;13.63;12.23;;;;;11.70;98497.00;;;;16589659;28;20664;-47
2022/11/28 14:28:24;;;;;;;16.07;13.10;;;;;11.70;98490.00;;;;16588600;28;20237;-48
2022/11/28 14:36:29;;;;;;;12.83;11.53;;;;;11.70;98493.00;;;;16587683;28;20691;-47
2022/11/28 14:44:50;;;;;;;15.77;12.57;;;;;12.10;98498.00;;;;16587610;28;20250;-48
2022/11/28 14:53:32;;;;;;;13.40;11.00;;;;;12.10;98490.00;;;;16586986;28;20218;-48
2022/11/28 15:01:48;;;;;;;12.50;11.20;;;;;12.00;98505.00;;;;16588124;28;20929;-48
2022/11/28 15:10:00;;;;;;;16.73;11.67;;;;;11.50;98500.00;;;;16580632;28;21005;-48
2022/11/28 15:18:05;;;;;;;24.53;17.97;;;;;11.10;98492.00;;;;16579914;28;20820;-46
2022/11/28 15:26:19;;;;;;;20.03;17.90;;;;;11.20;98502.00;;;;16562666;28;20270;-47
2022/11/28 15:34:27;;;;;;;16.80;15.03;;;;;11.70;98499.00;;;;16558762;28;20710;-48
2022/11/28 15:42:31;;;;;;;30.70;24.40;;;;;10.60;98524.00;;;;16558523;28;20227;-48
2022/11/28 15:50:37;;;;;;;20.70;18.50;;;;;10.50;98525.00;;;;16579815;28;20354;-47
2022/11/28 15:58:41;;;;;;;27.00;24.17;;;;;10.50;98524.00;;;;16578896;28;20202;-48
2022/11/28 16:06:49;;;;;;;23.20;20.83;;;;;10.70;98530.00;;;;16582089;28;20234;-48
2022/11/28 16:14:55;;;;;;;28.03;25.03;;;;;10.70;98524.00;;;;16577789;28;20220;-48
2022/11/28 16:23:01;;;;;;;22.73;19.77;;;;;10.50;98535.00;;;;16566418;28;20220;-48
2022/11/28 16:31:11;;;;;;;18.40;16.60;;;;;10.30;98531.00;;;;16568445;28;20306;-48
2022/11/28 16:39:16;;;;;;;18.07;16.23;;;;;9.90;98542.00;;;;16563619;28;20208;-47
2022/11/28 16:47:27;;;;;;;22.10;20.03;;;;;10.80;98531.00;;;;16581646;28;20218;-48
2022/11/28 16:55:44;;;;;;;19.50;16.27;;;;;9.80;98550.00;;;;16591957;28;20617;-48
2022/11/28 17:03:49;;;;;;;22.67;20.27;;;;;10.20;98541.00;;;;16596628;28;20229;-48
2022/11/28 17:11:57;;;;;;;22.57;20.17;;;;;9.80;98534.00;;;;16592627;28;20277;-48
2022/11/28 17:20:00;;;;;;;18.60;16.80;;;;;9.70;98529.00;;;;16591200;28;20635;-47
2022/11/28 17:28:04;;;;;;;26.73;21.60;;;;;10.00;98526.00;;;;16590769;28;20891;-48
2022/11/28 17:36:07;;;;;;;21.40;17.33;;;;;9.60;98530.00;;;;16564648;28;20839;-47
2022/11/28 17:44:17;;;;;;;20.63;18.33;;;;;9.80;98534.00;;;;16574456;28;20262;-47
2022/11/28 17:52:20;;;;;;;19.00;17.00;;;;;9.90;98530.00;;;;16551635;28;20699;-47
2022/11/28 18:00:24;;;;;;;30.03;26.07;;;;;10.10;98519.00;;;;16575957;28;20346;-47
2022/11/28 18:08:27;;;;;;;26.10;20.10;;;;;9.90;98528.00;;;;16581590;28;20310;-47
2022/11/28 18:16:34;;;;;;;23.60;20.80;;;;;10.00;98539.00;;;;16572592;28;20216;-47
2022/11/28 18:24:37;;;;;;;22.17;18.40;;;;;10.00;98526.00;;;;16575207;28;20235;-47
2022/11/28 18:32:41;;;;;;;24.58;17.77;;;;;9.60;98536.00;;;;16524501;28;1514405;-47
2022/11/28 18:40:43;;;;;;;20.33;17.93;;;;;9.50;98542.00;;;;16581145;28;20699;-47
2022/11/28 18:48:48;;;;;;;20.77;16.37;;;;;9.40;98559.00;;;;16584014;28;20307;-47
2022/11/28 18:56:51;;;;;;;17.30;15.50;;;;;9.60;98560.00;;;;16583320;28;20233;-47
2022/11/28 19:04:55;;;;;;;17.70;15.80;;;;;9.80;98560.00;;;;16584926;28;20253;-48
2022/11/28 19:12:58;;;;;;;20.53;16.63;;;;;10.00;98548.00;;;;16574959;28;20235;-48
2022/11/28 19:21:05;;;;;;;23.83;20.27;;;;;10.00;98560.00;;;;16582636;28;20228;-47
2022/11/28 19:29:07;;;;;;;19.03;16.87;;;;;10.10;98560.00;;;;16547721;28;20593;-47
2022/11/28 19:37:11;;;;;;;20.67;16.50;;;;;10.10;98551.00;;;;16571468;28;20737;-48
2022/11/28 19:45:14;;;;;;;20.27;17.63;;;;;9.90;98551.00;;;;16580097;28;20237;-47
2022/11/28 19:53:18;;;;;;;21.53;18.77;;;;;10.00;98553.00;;;;16583625;28;20219;-47
2022/11/28 20:01:23;;;;;;;17.80;16.00;;;;;9.80;98563.00;;;;16572579;28;20234;-49
2022/11/28 20:09:29;;;;;;;21.90;19.50;;;;;9.90;98559.00;;;;16583101;28;20222;-48
2022/11/28 20:17:33;;;;;;;21.50;19.20;;;;;10.20;98548.00;;;;16577226;28;20211;-48
2022/11/28 20:25:37;;;;;;;21.20;19.00;;;;;10.00;98568.00;;;;16581088;28;20234;-49
2022/11/28 20:33:40;;;;;;;22.90;20.47;;;;;10.90;98568.00;;;;16568307;28;20226;-48
2022/11/28 20:41:44;;;;;;;22.27;19.47;;;;;11.20;98569.00;;;;16571015;28;20224;-48
2022/11/28 20:49:46;;;;;;;23.60;21.10;;;;;10.80;98564.00;;;;16526172;28;20692;-47
2022/11/28 20:57:50;;;;;;;21.93;19.63;;;;;11.50;98564.00;;;;16550585;28;20261;-49
2022/11/28 21:05:53;;;;;;;24.67;19.70;;;;;11.40;98559.00;;;;16528413;28;20711;-48
2022/11/28 21:13:57;;;;;;;23.70;19.97;;;;;11.30;98558.00;;;;16541020;28;20714;-48
2022/11/28 21:22:00;;;;;;;23.17;20.00;;;;;11.20;98559.00;;;;16547289;28;20263;-47
2022/11/28 21:30:05;;;;;;;24.07;20.00;;;;;11.30;98571.00;;;;16547173;28;20270;-48
2022/11/28 21:38:08;;;;;;;28.20;20.53;;;;;11.10;98567.00;;;;16549560;28;20269;-47
2022/11/28 21:46:12;;;;;;;29.47;22.83;;;;;11.40;98562.00;;;;16544457;28;20314;-49
2022/11/28 21:54:14;;;;;;;28.90;21.87;;;;;11.30;98570.00;;;;16545157;28;20775;-48
2022/11/28 22:02:21;;;;;;;29.97;21.53;;;;;11.20;98572.00;;;;16585652;28;20325;-48
2022/11/28 22:10:25;;;;;;;26.07;22.77;;;;;11.20;98570.00;;;;16587925;28;20208;-48
2022/11/28 22:18:33;;;;;;;21.67;19.47;;;;;11.20;98571.00;;;;16601663;28;20239;-49
2022/11/28 22:26:36;;;;;;;23.07;20.07;;;;;11.30;98577.00;;;;16588440;28;20231;-48
2022/11/28 22:34:40;;;;;;;22.30;19.90;;;;;11.50;98569.00;;;;16587909;28;20285;-48
2022/11/28 22:42:43;;;;;;;21.93;19.47;;;;;11.70;98569.00;;;;16587347;28;20223;-48
2022/11/28 22:50:47;;;;;;;25.53;19.77;;;;;11.50;98579.00;;;;16597730;28;20211;-48
2022/11/28 22:58:50;;;;;;;21.13;18.93;;;;;11.60;98575.00;;;;16588557;28;20293;-48
2022/11/28 23:06:55;;;;;;;25.73;20.13;;;;;11.80;98579.00;;;;16585237;28;20710;-48
2022/11/28 23:14:58;;;;;;;19.27;17.40;;;;;11.80;98582.00;;;;16584061;28;20243;-48
2022/11/28 23:23:02;;;;;;;20.27;18.13;;;;;11.70;98586.00;;;;16584670;28;20216;-48
2022/11/28 23:31:06;;;;;;;21.67;17.30;;;;;11.30;98591.00;;;;16582688;28;20257;-47
2022/11/28 23:39:12;;;;;;;23.33;18.53;;;;;11.60;98584.00;;;;16582924;28;20702;-47
2022/11/28 23:47:14;;;;;;;20.67;18.57;;;;;11.10;98592.00;;;;16583937;28;20241;-49
2022/11/28 23:55:18;;;;;;;21.63;17.07;;;;;10.50;98597.00;;;;16584286;28;20802;-48
